createdAt,value
2022-11-14T00:00:48.405Z,62.73
2022-11-14T00:03:34.013Z,62.69
2022-11-14T00:06:20.233Z,62.99
2022-11-14T00:09:05.819Z,62.48
2022-11-14T00:11:51.259Z,62.92
2022-11-14T00:14:37.321Z,63.21
2022-11-14T00:17:23.123Z,63.27
2022-11-14T00:20:11.872Z,63.38
2022-11-14T00:22:57.910Z,63.37
2022-11-14T00:25:45.367Z,63.40
2022-11-14T00:28:31.411Z,63.26
2022-11-14T00:31:17.240Z,63.30
2022-11-14T00:34:02.961Z,63.51
2022-11-14T00:36:48.800Z,63.11
2022-11-14T00:39:34.621Z,63.17
2022-11-14T00:42:20.021Z,63.31
2022-11-14T00:45:06.449Z,63.29
2022-11-14T00:47:52.120Z,63.49
2022-11-14T00:50:38.319Z,63.52
2022-11-14T00:53:24.079Z,63.01
2022-11-14T00:56:09.519Z,63.12
2022-11-14T00:58:55.261Z,63.02
2022-11-14T01:01:41.000Z,62.85
2022-11-14T01:04:26.520Z,63.11
2022-11-14T01:07:11.861Z,62.64
2022-11-14T01:09:57.439Z,62.83
2022-11-14T01:12:42.879Z,62.79
2022-11-14T01:15:28.181Z,62.87
2022-11-14T01:18:19.727Z,62.53
2022-11-14T01:21:07.299Z,62.38
2022-11-14T01:23:52.879Z,62.99
2022-11-14T01:26:38.463Z,62.80
2022-11-14T01:29:24.019Z,62.79
2022-11-14T01:32:09.603Z,62.67
2022-11-14T01:34:55.279Z,62.29
2022-11-14T01:37:41.099Z,62.75
2022-11-14T01:40:27.184Z,63.17
2022-11-14T01:43:19.201Z,63.04
2022-11-14T01:46:06.661Z,63.02
2022-11-14T01:49:10.840Z,63.01
2022-11-14T01:52:12.620Z,63.18
2022-11-14T01:55:01.380Z,62.90
2022-11-14T01:57:48.400Z,63.03
2022-11-14T02:00:34.181Z,62.95
2022-11-14T02:03:20.481Z,63.05
2022-11-14T02:06:09.640Z,63.38
2022-11-14T02:08:56.967Z,63.53
2022-11-14T02:11:46.000Z,63.25
2022-11-14T02:14:32.854Z,63.12
2022-11-14T02:17:34.765Z,63.49
2022-11-14T02:20:33.973Z,62.93
2022-11-14T02:23:27.739Z,63.07
2022-11-14T02:26:13.400Z,63.17
2022-11-14T02:28:59.059Z,63.24
2022-11-14T02:31:44.841Z,63.05
2022-11-14T02:34:30.967Z,62.93
2022-11-14T02:37:16.761Z,63.28
2022-11-14T02:40:02.542Z,63.41
2022-11-14T02:42:48.120Z,63.37
2022-11-14T02:45:33.620Z,63.28
2022-11-14T02:48:19.419Z,63.02
2022-11-14T02:51:05.319Z,63.46
2022-11-14T02:53:51.160Z,63.66
2022-11-14T02:56:36.881Z,64.35
2022-11-14T02:59:22.480Z,64.47
2022-11-14T03:02:08.389Z,64.42
2022-11-14T03:04:54.430Z,64.77
2022-11-14T03:07:40.000Z,64.56
2022-11-14T03:10:25.802Z,64.17
2022-11-14T03:13:11.623Z,64.56
2022-11-14T03:15:57.184Z,64.48
2022-11-14T03:18:43.088Z,64.83
2022-11-14T03:21:28.841Z,64.87
2022-11-14T03:24:14.408Z,65.16
2022-11-14T03:26:59.979Z,64.93
2022-11-14T03:29:45.599Z,65.29
2022-11-14T03:32:31.181Z,64.94
2022-11-14T03:35:16.880Z,65.47
2022-11-14T03:38:02.300Z,65.31
2022-11-14T03:40:47.820Z,65.31
2022-11-14T03:43:34.440Z,65.26
2022-11-14T03:46:20.122Z,65.24
2022-11-14T03:49:05.621Z,65.52
2022-11-14T03:51:51.120Z,65.68
2022-11-14T03:54:37.263Z,65.68
2022-11-14T03:57:22.940Z,65.64
2022-11-14T04:00:10.918Z,65.89
2022-11-14T04:02:57.822Z,65.89
2022-11-14T04:05:45.552Z,65.44
2022-11-14T04:08:31.499Z,65.78
2022-11-14T04:11:17.441Z,65.66
2022-11-14T04:14:03.280Z,65.38
2022-11-14T04:16:48.845Z,65.58
2022-11-14T04:19:34.545Z,65.93
2022-11-14T04:22:20.040Z,65.99
2022-11-14T04:25:06.342Z,65.89
2022-11-14T04:27:51.782Z,66.05
2022-11-14T04:30:37.661Z,65.75
2022-11-14T04:33:23.262Z,66.50
2022-11-14T04:36:09.162Z,66.49
2022-11-14T04:38:54.522Z,65.45
2022-11-14T04:41:40.109Z,66.39
2022-11-14T04:44:25.561Z,66.73
2022-11-14T04:47:11.141Z,66.68
2022-11-14T04:49:56.620Z,66.74
2022-11-14T04:52:42.282Z,66.50
2022-11-14T04:55:28.167Z,67.08
2022-11-14T04:58:13.680Z,66.80
2022-11-14T05:00:59.512Z,67.18
2022-11-14T05:03:45.142Z,67.00
2022-11-14T05:06:30.984Z,66.97
2022-11-14T05:09:16.480Z,66.69
2022-11-14T05:12:02.522Z,66.71
2022-11-14T05:14:49.189Z,66.79
2022-11-14T05:17:35.317Z,66.96
2022-11-14T05:20:21.074Z,66.79
2022-11-14T05:23:06.833Z,67.12
2022-11-14T05:26:03.053Z,67.06
2022-11-14T05:28:48.754Z,66.83
2022-11-14T05:31:34.331Z,66.81
2022-11-14T05:34:19.872Z,66.59
2022-11-14T05:37:05.652Z,66.58
2022-11-14T05:39:51.473Z,66.51
2022-11-14T05:42:37.245Z,66.43
2022-11-14T05:45:22.834Z,66.13
2022-11-14T05:48:08.593Z,66.32
2022-11-14T05:51:04.498Z,66.54
2022-11-14T05:53:50.193Z,66.58
2022-11-14T05:56:36.114Z,66.00
2022-11-14T05:59:21.854Z,66.80
2022-11-14T06:02:07.302Z,66.82
2022-11-14T06:04:52.692Z,66.69
2022-11-14T06:07:39.429Z,67.00
2022-11-14T06:10:25.814Z,67.04
2022-11-14T06:13:11.355Z,66.93
2022-11-14T06:16:03.715Z,66.89
2022-11-14T06:18:49.553Z,67.11
2022-11-14T06:21:35.292Z,66.88
2022-11-14T06:24:20.734Z,67.14
2022-11-14T06:27:06.496Z,66.92
2022-11-14T06:29:52.036Z,67.07
2022-11-14T06:32:37.375Z,66.77
2022-11-14T06:35:22.815Z,67.31
2022-11-14T06:38:08.415Z,67.07
2022-11-14T06:40:53.919Z,66.82
2022-11-14T06:43:41.576Z,67.31
2022-11-14T06:46:27.307Z,67.23
2022-11-14T06:49:12.912Z,67.42
2022-11-14T06:51:58.294Z,67.40
2022-11-14T06:54:43.693Z,67.24
2022-11-14T06:57:29.552Z,67.21
2022-11-14T07:00:15.583Z,67.14
2022-11-14T07:03:01.360Z,66.99
2022-11-14T07:05:46.813Z,67.38
2022-11-14T07:08:33.479Z,67.08
2022-11-14T07:11:26.014Z,67.04
2022-11-14T07:14:11.755Z,66.83
2022-11-14T07:16:58.391Z,66.70
2022-11-14T07:19:44.216Z,66.62
2022-11-14T07:22:29.932Z,66.28
2022-11-14T07:25:16.071Z,66.16
2022-11-14T07:28:01.712Z,66.21
2022-11-14T07:30:47.541Z,66.53
2022-11-14T07:33:33.672Z,66.46
2022-11-14T07:36:19.353Z,66.51
2022-11-14T07:39:05.338Z,66.72
2022-11-14T07:41:51.033Z,66.37
2022-11-14T07:44:36.693Z,65.48
2022-11-14T07:47:22.592Z,64.97
2022-11-14T07:50:08.795Z,65.29
2022-11-14T07:52:55.534Z,64.95
2022-11-14T07:55:41.434Z,65.31
2022-11-14T07:58:27.400Z,64.92
2022-11-14T08:01:14.829Z,65.31
2022-11-14T08:04:00.592Z,65.86
2022-11-14T08:06:46.508Z,65.77
2022-11-14T08:09:32.052Z,65.99
2022-11-14T08:12:17.552Z,66.13
2022-11-14T08:15:03.215Z,65.74
2022-11-14T08:17:48.711Z,65.84
2022-11-14T08:20:34.197Z,65.45
2022-11-14T08:23:19.778Z,65.42
2022-11-14T08:26:05.655Z,65.03
2022-11-14T08:28:54.695Z,64.82
2022-11-14T08:31:40.317Z,64.10
2022-11-14T08:34:26.152Z,63.97
2022-11-14T08:37:12.113Z,64.16
2022-11-14T08:39:57.692Z,63.55
2022-11-14T08:42:43.080Z,63.69
2022-11-14T08:45:29.974Z,63.45
2022-11-14T08:48:15.612Z,63.30
2022-11-14T08:51:06.166Z,62.55
2022-11-14T08:53:52.657Z,62.28
2022-11-14T08:56:38.272Z,62.88
2022-11-14T08:59:24.018Z,62.65
2022-11-14T09:02:16.652Z,62.28
2022-11-14T09:05:02.459Z,62.09
2022-11-14T09:07:47.918Z,62.15
2022-11-14T09:10:33.854Z,62.01
2022-11-14T09:13:19.515Z,62.03
2022-11-14T09:16:05.473Z,62.82
2022-11-14T09:18:50.952Z,61.92
2022-11-14T09:21:36.493Z,61.86
2022-11-14T09:24:21.911Z,61.74
2022-11-14T09:27:07.560Z,62.13
2022-11-14T09:29:53.032Z,61.96
2022-11-14T09:32:38.572Z,61.90
2022-11-14T09:35:24.072Z,62.22
2022-11-14T09:38:11.855Z,62.75
2022-11-14T09:41:09.832Z,62.72
2022-11-14T09:44:20.567Z,61.17
2022-11-14T09:47:20.457Z,61.34
2022-11-14T09:50:30.620Z,61.26
2022-11-14T09:53:33.451Z,61.08
2022-11-14T09:56:25.050Z,60.15
2022-11-14T09:59:12.554Z,59.47
2022-11-14T10:02:37.994Z,57.73
2022-11-14T10:05:42.371Z,57.04
2022-11-14T10:08:50.993Z,56.51
2022-11-14T10:11:38.792Z,55.63
2022-11-14T10:15:10.811Z,54.36
2022-11-14T10:18:19.532Z,53.07
2022-11-14T10:21:27.811Z,52.21
2022-11-14T10:24:41.262Z,52.40
2022-11-14T10:27:34.651Z,52.98
2022-11-14T10:30:20.593Z,52.32
2022-11-14T10:33:15.495Z,51.89
2022-11-14T10:36:19.573Z,50.15
2022-11-14T10:39:22.109Z,49.60
2022-11-14T10:42:30.274Z,49.67
2022-11-14T10:45:26.360Z,48.71
2022-11-14T10:48:38.351Z,48.31
2022-11-14T10:51:31.993Z,47.60
2022-11-14T10:54:42.054Z,46.00
2022-11-14T10:57:28.980Z,46.14
2022-11-14T11:00:22.954Z,44.79
2022-11-14T11:03:08.695Z,45.13
2022-11-14T11:06:00.160Z,45.12
2022-11-14T11:09:04.519Z,43.35
2022-11-14T11:12:16.202Z,43.44
2022-11-14T11:15:16.638Z,42.80
2022-11-14T11:18:05.423Z,43.22
2022-11-14T11:21:09.653Z,42.51
2022-11-14T11:23:58.453Z,41.97
2022-11-14T11:26:44.292Z,41.62
2022-11-14T11:29:30.133Z,42.14
2022-11-14T11:32:26.614Z,40.98
2022-11-14T11:35:14.635Z,41.19
2022-11-14T11:38:03.115Z,41.34
2022-11-14T11:40:52.872Z,40.61
2022-11-14T11:44:01.837Z,39.93
2022-11-14T11:46:56.561Z,40.06
2022-11-14T11:49:54.656Z,38.85
2022-11-14T11:53:02.813Z,38.44
2022-11-14T11:55:52.613Z,37.91
2022-11-14T11:58:46.432Z,37.91
2022-11-14T12:13:27.134Z,37.30
2022-11-14T12:16:19.238Z,36.59
2022-11-14T12:19:23.092Z,37.09
2022-11-14T12:22:27.254Z,35.71
2022-11-14T12:25:40.706Z,32.73
2022-11-14T12:28:59.499Z,31.47
2022-11-14T12:31:46.836Z,31.43
2022-11-14T12:34:35.293Z,30.19
2022-11-14T12:37:37.048Z,28.69
2022-11-14T12:40:38.014Z,27.85
2022-11-14T12:43:38.864Z,27.92
2022-11-14T12:46:24.893Z,26.85
2022-11-14T12:49:52.885Z,26.59
2022-11-14T12:52:41.081Z,25.59
2022-11-14T12:55:26.542Z,25.46
2022-11-14T12:58:17.833Z,25.39
2022-11-14T13:01:27.047Z,24.10
2022-11-14T13:04:18.653Z,23.82
2022-11-14T13:07:07.548Z,22.79
2022-11-14T13:10:12.112Z,23.70
2022-11-14T13:13:29.497Z,22.99
2022-11-14T13:16:51.160Z,23.68
2022-11-14T13:20:05.616Z,23.42
2022-11-14T13:22:51.398Z,23.44
2022-11-14T13:25:37.118Z,23.85
2022-11-14T13:28:38.401Z,24.85
2022-11-14T13:31:26.563Z,26.39
2022-11-14T13:34:30.914Z,28.47
2022-11-14T13:37:44.253Z,31.07
2022-11-14T13:40:32.253Z,33.02
2022-11-14T13:43:26.773Z,34.38
2022-11-14T13:46:30.573Z,37.48
2022-11-14T13:49:18.796Z,37.72
2022-11-14T13:52:05.493Z,39.43
2022-11-14T13:54:51.294Z,39.48
2022-11-14T13:58:06.015Z,41.71
2022-11-14T14:01:07.035Z,42.76
2022-11-14T14:04:13.372Z,44.44
2022-11-14T14:07:29.945Z,45.02
2022-11-14T14:10:15.526Z,46.51
2022-11-14T14:13:32.405Z,47.89
2022-11-14T14:16:30.635Z,47.80
2022-11-14T14:19:47.113Z,50.03
2022-11-14T14:22:53.916Z,49.53
2022-11-14T14:26:28.999Z,52.39
2022-11-14T14:29:31.114Z,53.08
2022-11-14T14:32:18.955Z,52.67
2022-11-14T14:35:40.878Z,53.91
2022-11-14T14:38:28.471Z,52.98
2022-11-14T14:41:15.599Z,52.82
2022-11-14T14:44:01.736Z,53.58
2022-11-14T14:46:48.062Z,52.49
2022-11-14T14:49:38.797Z,55.21
2022-11-14T14:52:31.772Z,56.36
2022-11-14T14:55:32.854Z,57.03
2022-11-14T14:58:28.411Z,57.56
2022-11-14T15:01:19.428Z,55.32
2022-11-14T15:04:12.133Z,54.63
2022-11-14T15:06:58.509Z,56.44
2022-11-14T15:09:53.782Z,56.21
2022-11-14T15:12:41.617Z,56.72
2022-11-14T15:15:28.141Z,58.10
2022-11-14T15:18:31.758Z,57.81
2022-11-14T15:21:27.615Z,58.52
2022-11-14T15:24:18.219Z,59.47
2022-11-14T15:27:11.360Z,59.44
2022-11-14T15:30:04.713Z,60.15
2022-11-14T15:32:59.354Z,59.37
2022-11-14T15:35:44.781Z,59.95
2022-11-14T15:38:54.273Z,60.23
2022-11-14T15:41:35.754Z,60.29
2022-11-14T15:44:34.843Z,59.58
2022-11-14T15:47:37.055Z,60.35
2022-11-14T15:50:32.496Z,59.16
2022-11-14T15:53:21.334Z,59.47
2022-11-14T15:56:11.313Z,59.05
2022-11-14T15:58:56.855Z,60.50
2022-11-14T16:01:44.708Z,59.89
2022-11-14T16:04:35.954Z,61.00
2022-11-14T16:07:22.434Z,60.98
2022-11-14T16:10:28.335Z,60.14
2022-11-14T16:13:14.222Z,61.31
2022-11-14T16:15:59.874Z,61.92
2022-11-14T16:18:45.571Z,61.79
2022-11-14T16:21:31.736Z,62.15
2022-11-14T16:24:20.001Z,61.54
2022-11-14T16:27:05.977Z,61.62
2022-11-14T16:29:51.943Z,61.38
2022-11-14T16:32:37.646Z,61.70
2022-11-14T16:35:25.954Z,61.70
2022-11-14T16:38:14.308Z,61.49
2022-11-14T16:41:00.622Z,61.82
2022-11-14T16:43:46.377Z,61.25
2022-11-14T16:46:32.381Z,61.45
2022-11-14T16:49:20.219Z,61.01
2022-11-14T16:52:08.853Z,61.04
2022-11-14T16:54:54.614Z,60.66
2022-11-14T16:57:40.640Z,60.78
2022-11-14T17:00:27.917Z,60.46
2022-11-14T17:03:13.353Z,60.44
2022-11-14T17:05:59.140Z,60.62
2022-11-14T17:08:45.012Z,60.38
2022-11-14T17:11:30.934Z,60.65
2022-11-14T17:14:16.415Z,60.89
2022-11-14T17:17:02.280Z,61.27
2022-11-14T17:19:47.910Z,61.13
2022-11-14T17:22:33.823Z,61.18
2022-11-14T17:25:19.573Z,61.42
2022-11-14T17:28:05.227Z,60.93
2022-11-14T17:30:50.983Z,61.21
2022-11-14T17:33:37.773Z,61.26
2022-11-14T17:36:24.774Z,61.80
2022-11-14T17:39:10.660Z,61.56
2022-11-14T17:41:56.110Z,61.39
2022-11-14T17:44:41.755Z,61.54
2022-11-14T17:47:28.634Z,61.80
2022-11-14T17:50:14.615Z,62.06
2022-11-14T17:53:00.432Z,61.83
2022-11-14T17:55:46.464Z,61.88
2022-11-14T17:58:32.629Z,61.61
2022-11-14T18:01:22.026Z,61.64
2022-11-14T18:04:07.753Z,61.43
2022-11-14T18:06:53.484Z,61.34
2022-11-14T18:09:39.244Z,61.27
2022-11-14T18:12:24.960Z,60.97
2022-11-14T18:15:10.923Z,61.80
2022-11-14T18:17:56.719Z,61.31
2022-11-14T18:20:41.974Z,61.54
2022-11-14T18:23:27.538Z,61.53
2022-11-14T18:26:18.334Z,61.99
2022-11-14T18:29:03.959Z,61.72
2022-11-14T18:31:49.816Z,61.56
2022-11-14T18:34:38.275Z,62.30
2022-11-14T18:37:23.860Z,61.42
2022-11-14T18:40:16.125Z,61.52
2022-11-14T18:43:02.588Z,61.53
2022-11-14T18:45:48.334Z,61.81
2022-11-14T18:48:34.979Z,61.67
2022-11-14T18:51:23.173Z,61.80
2022-11-14T18:54:12.952Z,62.04
2022-11-14T18:56:58.881Z,61.42
2022-11-14T18:59:44.453Z,61.50
2022-11-14T19:02:30.649Z,61.58
2022-11-14T19:05:16.424Z,61.65
2022-11-14T19:08:02.359Z,61.97
2022-11-14T19:10:48.036Z,61.75
2022-11-14T19:13:33.908Z,61.38
2022-11-14T19:16:19.696Z,61.74
2022-11-14T19:19:06.723Z,61.96
2022-11-14T19:21:52.692Z,61.88
2022-11-14T19:24:43.149Z,62.31
2022-11-14T19:27:28.802Z,62.19
2022-11-14T19:30:16.694Z,62.03
2022-11-14T19:33:04.891Z,62.91
2022-11-14T19:35:51.178Z,63.05
2022-11-14T19:38:39.698Z,62.63
2022-11-14T19:41:27.034Z,63.62
2022-11-14T19:44:13.072Z,62.41
2022-11-14T19:46:58.632Z,63.21
2022-11-14T19:49:44.436Z,63.32
2022-11-14T19:52:30.415Z,63.15
2022-11-14T19:55:16.091Z,63.37
2022-11-14T19:58:01.853Z,63.18
2022-11-14T20:00:47.955Z,63.04
2022-11-14T20:03:34.054Z,63.47
2022-11-14T20:06:23.620Z,63.64
2022-11-14T20:09:10.733Z,62.70
2022-11-14T20:11:56.233Z,62.86
2022-11-14T20:14:42.078Z,62.77
2022-11-14T20:17:28.093Z,63.42
2022-11-14T20:20:13.895Z,63.80
2022-11-14T20:22:59.894Z,63.60
2022-11-14T20:25:52.533Z,63.62
2022-11-14T20:28:39.434Z,64.45
2022-11-14T20:31:27.993Z,64.83
2022-11-14T20:34:13.531Z,64.47
2022-11-14T20:37:14.617Z,64.64
2022-11-14T20:40:00.263Z,65.28
2022-11-14T20:42:49.342Z,65.35
2022-11-14T20:45:35.234Z,65.34
2022-11-14T20:48:21.035Z,65.59
2022-11-14T20:51:08.376Z,65.29
2022-11-14T20:53:55.153Z,65.61
2022-11-14T20:56:40.537Z,65.30
2022-11-14T20:59:26.670Z,65.17
2022-11-14T21:02:13.277Z,65.28
2022-11-14T21:04:59.493Z,64.97
2022-11-14T21:07:45.354Z,64.41
2022-11-14T21:10:45.943Z,64.36
2022-11-14T21:13:54.439Z,64.68
2022-11-14T21:16:40.774Z,65.63
2022-11-14T21:19:26.819Z,65.85
2022-11-14T21:22:13.615Z,65.93
2022-11-14T21:24:59.534Z,65.09
2022-11-14T21:27:45.291Z,65.73
2022-11-14T21:30:34.873Z,65.83
2022-11-14T21:33:20.713Z,65.36
2022-11-14T21:36:29.995Z,65.83
2022-11-14T21:39:17.423Z,66.16
2022-11-14T21:42:03.282Z,65.93
2022-11-14T21:44:49.053Z,66.36
2022-11-14T21:47:35.181Z,66.64
2022-11-14T21:50:20.674Z,66.68
2022-11-14T21:53:16.216Z,65.97
2022-11-14T21:56:17.273Z,66.64
2022-11-14T21:59:15.759Z,66.36
2022-11-14T22:02:20.997Z,67.11
2022-11-14T22:05:07.209Z,67.04
2022-11-14T22:07:52.756Z,66.72
2022-11-14T22:10:38.522Z,66.96
2022-11-14T22:13:24.252Z,66.97
2022-11-14T22:16:11.753Z,66.81
2022-11-14T22:19:04.461Z,67.02
2022-11-14T22:21:50.853Z,66.92
2022-11-14T22:24:36.515Z,66.86
2022-11-14T22:27:22.277Z,66.82
2022-11-14T22:30:08.490Z,67.04
2022-11-14T22:32:53.978Z,66.43
2022-11-14T22:35:39.672Z,66.35
2022-11-14T22:38:25.394Z,66.78
2022-11-14T22:41:19.852Z,66.58
2022-11-14T22:44:05.592Z,66.38
2022-11-14T22:46:51.074Z,66.10
2022-11-14T22:49:36.913Z,66.45
2022-11-14T22:52:22.356Z,66.47
2022-11-14T22:55:09.730Z,66.39
2022-11-14T22:57:58.921Z,66.45
2022-11-14T23:00:44.933Z,66.25
2022-11-14T23:03:30.418Z,65.96
2022-11-14T23:06:18.835Z,65.77
2022-11-14T23:09:04.753Z,65.57
2022-11-14T23:11:50.440Z,65.40
2022-11-14T23:14:36.295Z,66.44
2022-11-14T23:17:22.132Z,65.97
2022-11-14T23:20:13.561Z,66.06
2022-11-14T23:23:01.893Z,65.82
2022-11-14T23:25:47.612Z,65.92
2022-11-14T23:28:33.432Z,66.26
2022-11-14T23:31:19.428Z,66.14
2022-11-14T23:34:05.393Z,66.76
2022-11-14T23:36:50.992Z,67.14
2022-11-14T23:39:36.499Z,67.82
2022-11-14T23:42:22.239Z,67.73
2022-11-14T23:45:08.298Z,68.36
2022-11-14T23:47:54.032Z,68.36
2022-11-14T23:50:39.536Z,68.41
2022-11-14T23:53:25.214Z,69.05
2022-11-14T23:56:13.536Z,69.15
2022-11-14T23:58:59.392Z,69.47
